Terminal Aerodrome Forecast
Issued by NWS Spokane, WA

Home | Current Version | Previous Version | Text Only | Print | Product List | Glossary On
Versions: 1 2 3 4 5 6 7 8 9 10 11 12 13 14 15 16 17 18 19 20 21 22 23 24 25 26 27 28 29 30
000
FTUS46 KOTX 290539 CCF
TAFLWS
TAF COR
KLWS 290539Z 2906/3006 00000KT P6SM VCSH SCT080 BKN200
     FM291200 10005KT P6SM SCT080 BKN120
     FM292000 07006KT P6SM SCT120=

USA.gov is the U.S. government's official web portal to all federal, state and local government web resources and services.